createdAt,value
2022-09-11T07:00:21.937Z,16.87
2022-09-11T07:02:53.004Z,16.95
2022-09-11T07:05:22.405Z,17.05
2022-09-11T07:07:53.796Z,17.14
2022-09-11T07:10:22.705Z,17.22
2022-09-11T07:12:55.934Z,17.34
2022-09-11T07:15:25.758Z,17.77
2022-09-11T07:17:55.372Z,18.74
2022-09-11T07:20:23.850Z,19.42
2022-09-11T07:22:52.243Z,19.40
2022-09-11T07:25:22.297Z,19.72
2022-09-11T07:27:51.914Z,19.85
2022-09-11T07:30:21.677Z,19.77
2022-09-11T07:32:55.309Z,19.29
2022-09-11T07:35:23.612Z,18.85
2022-09-11T07:37:54.307Z,18.75
2022-09-11T07:40:26.790Z,18.82
2022-09-11T07:42:55.278Z,19.17
2022-09-11T07:45:24.300Z,20.14
2022-09-11T07:47:55.743Z,20.55
2022-09-11T07:50:24.432Z,21.01
2022-09-11T07:52:53.295Z,21.13
2022-09-11T07:55:22.748Z,20.97
2022-09-11T07:57:54.110Z,20.41
2022-09-11T08:00:24.493Z,20.27
2022-09-11T08:03:03.830Z,19.85
2022-09-11T08:05:36.225Z,20.03
2022-09-11T08:08:04.851Z,19.96
2022-09-11T08:10:34.326Z,20.36
2022-09-11T08:13:09.327Z,20.71
2022-09-11T08:15:38.815Z,21.18
2022-09-11T08:18:10.390Z,21.67
2022-09-11T08:20:38.879Z,22.04
2022-09-11T08:23:07.319Z,21.84
2022-09-11T08:25:36.975Z,22.14
2022-09-11T08:28:06.725Z,22.39
2022-09-11T08:30:38.236Z,22.75
2022-09-11T08:33:09.498Z,23.14
2022-09-11T08:35:38.495Z,23.06
2022-09-11T08:38:06.897Z,22.77
2022-09-11T08:40:39.666Z,22.29
2022-09-11T08:43:19.473Z,21.74
2022-09-11T08:45:49.374Z,21.19
2022-09-11T08:48:25.073Z,20.92
2022-09-11T08:50:53.598Z,20.63
2022-09-11T08:53:23.034Z,20.32
2022-09-11T08:55:59.465Z,20.09
2022-09-11T08:58:36.833Z,19.86
2022-09-11T09:01:15.192Z,19.63
2022-09-11T09:04:10.547Z,19.57
2022-09-11T09:06:55.648Z,19.54
2022-09-11T09:09:35.587Z,19.47
2022-09-11T09:12:17.548Z,19.36
2022-09-11T09:15:10.170Z,19.37
2022-09-11T09:17:42.324Z,19.35
2022-09-11T09:20:21.123Z,19.26
2022-09-11T09:22:56.154Z,19.02
2022-09-11T09:25:27.437Z,18.96
2022-09-11T09:28:04.899Z,18.89
2022-09-11T09:30:44.127Z,18.85
2022-09-11T09:33:28.228Z,18.96
2022-09-11T09:36:01.217Z,19.11
2022-09-11T09:38:31.450Z,19.23
2022-09-11T09:41:49.876Z,19.16
2022-09-11T09:44:34.221Z,19.41
2022-09-11T09:47:02.564Z,20.18
2022-09-11T09:49:35.368Z,20.67
2022-09-11T09:52:18.875Z,20.65
2022-09-11T09:54:57.394Z,20.43
2022-09-11T09:57:28.662Z,20.02
2022-09-11T10:00:06.335Z,19.79
2022-09-11T10:02:45.524Z,19.66
2022-09-11T10:05:21.364Z,19.51
2022-09-11T10:07:54.234Z,19.35
2022-09-11T10:10:29.550Z,19.26
2022-09-11T10:13:18.489Z,19.28
2022-09-11T10:15:50.617Z,19.12
2022-09-11T10:18:40.132Z,19.25
2022-09-11T10:21:26.064Z,19.40
2022-09-11T10:23:58.411Z,19.94
2022-09-11T10:26:32.619Z,20.84
2022-09-11T10:29:07.749Z,21.68
2022-09-11T10:31:40.417Z,22.05
2022-09-11T10:34:15.874Z,22.35
2022-09-11T10:36:54.940Z,22.97
2022-09-11T10:39:27.406Z,23.18
2022-09-11T10:42:02.092Z,23.28
2022-09-11T10:44:31.367Z,23.61
2022-09-11T10:47:06.959Z,23.77
2022-09-11T10:49:36.050Z,23.97
2022-09-11T10:52:18.891Z,23.81
2022-09-11T10:55:00.633Z,23.93
2022-09-11T10:57:34.711Z,23.60
2022-09-11T11:00:09.824Z,23.76
2022-09-11T11:02:42.262Z,23.38
2022-09-11T11:05:24.551Z,22.74
2022-09-11T11:08:27.465Z,22.10
2022-09-11T11:11:18.729Z,21.63
2022-09-11T11:14:27.156Z,20.87
2022-09-11T11:17:06.495Z,20.63
2022-09-11T11:19:56.730Z,20.41
2022-09-11T11:22:59.317Z,20.23
2022-09-11T11:25:37.907Z,20.19
2022-09-11T11:28:25.033Z,20.15
2022-09-11T11:31:08.900Z,20.09
2022-09-11T11:34:18.313Z,20.07
2022-09-11T11:36:52.314Z,20.05
2022-09-11T11:39:26.089Z,20.09
2022-09-11T11:42:09.701Z,20.03
2022-09-11T11:44:46.587Z,19.99
2022-09-11T11:47:18.208Z,20.06
2022-09-11T11:50:00.151Z,20.29
2022-09-11T11:52:42.319Z,20.42
2022-09-11T11:55:20.695Z,20.94
2022-09-11T11:57:59.489Z,21.76
2022-09-11T12:00:31.643Z,22.31
2022-09-11T12:03:07.634Z,22.56
2022-09-11T12:05:37.531Z,22.52
2022-09-11T12:08:13.250Z,22.70
2022-09-11T12:10:45.990Z,22.88
2022-09-11T12:13:17.563Z,22.93
2022-09-11T12:16:14.950Z,23.31
2022-09-11T12:19:04.160Z,23.56
2022-09-11T12:22:11.143Z,23.51
2022-09-11T12:24:58.811Z,23.50
2022-09-11T12:28:11.339Z,23.36
2022-09-11T12:31:05.556Z,23.16
2022-09-11T12:33:58.218Z,22.96
2022-09-11T12:36:47.762Z,22.90
2022-09-11T12:39:27.302Z,22.77
2022-09-11T12:42:57.047Z,22.50
2022-09-11T12:45:37.234Z,22.21
2022-09-11T12:48:13.565Z,22.18
2022-09-11T12:50:50.380Z,22.18
2022-09-11T12:53:25.532Z,22.19
2022-09-11T12:56:00.631Z,22.21
2022-09-11T12:58:37.486Z,22.08
2022-09-11T13:01:18.955Z,22.17
2022-09-11T13:03:58.437Z,22.22
2022-09-11T13:06:40.758Z,22.47
2022-09-11T13:09:19.457Z,22.64
2022-09-11T13:11:50.509Z,22.59
2022-09-11T13:14:52.140Z,22.66
2022-09-11T13:17:30.373Z,22.49
2022-09-11T13:20:21.957Z,22.24
2022-09-11T13:22:56.198Z,22.21
2022-09-11T13:25:28.041Z,22.44
2022-09-11T13:28:01.282Z,22.43
2022-09-11T13:30:30.086Z,22.27
2022-09-11T13:33:07.456Z,22.51
2022-09-11T13:35:40.348Z,22.62
2022-09-11T13:38:11.999Z,22.47
2022-09-11T13:40:47.553Z,22.53
2022-09-11T13:43:21.317Z,22.81
2022-09-11T13:45:50.140Z,22.86
2022-09-11T13:48:23.284Z,22.76
2022-09-11T13:50:53.847Z,22.79
2022-09-11T13:53:23.928Z,23.01
2022-09-11T13:55:52.388Z,23.13
2022-09-11T13:58:26.199Z,22.85
2022-09-11T14:00:55.957Z,22.98
2022-09-11T14:03:28.828Z,22.91
2022-09-11T14:06:00.887Z,22.96
2022-09-11T14:08:34.372Z,23.09
2022-09-11T14:11:11.076Z,23.03
2022-09-11T14:13:45.872Z,23.21
2022-09-11T14:16:26.753Z,23.16
2022-09-11T14:19:00.296Z,23.12
2022-09-11T14:21:35.650Z,23.36
2022-09-11T14:24:07.322Z,23.43
2022-09-11T14:26:42.993Z,23.31
2022-09-11T14:29:25.944Z,23.26
2022-09-11T14:31:55.953Z,23.26
2022-09-11T14:34:27.808Z,22.95
2022-09-11T14:37:03.913Z,22.68
2022-09-11T14:39:38.865Z,22.56
2022-09-11T14:42:09.158Z,22.60
2022-09-11T14:44:39.482Z,22.45
2022-09-11T14:47:10.413Z,22.10
2022-09-11T14:49:38.823Z,22.00
2022-09-11T14:52:08.611Z,22.09
2022-09-11T14:54:37.513Z,22.07
2022-09-11T14:57:15.248Z,22.06
2022-09-11T14:59:46.984Z,21.77
2022-09-11T15:02:18.981Z,21.66
2022-09-11T15:04:47.891Z,21.57
2022-09-11T15:07:19.781Z,21.55
2022-09-11T15:09:48.210Z,21.38
2022-09-11T15:12:16.940Z,21.27
2022-09-11T15:14:59.409Z,21.20
2022-09-11T15:17:31.606Z,21.14
2022-09-11T15:20:01.177Z,20.89
2022-09-11T15:22:31.382Z,21.03
2022-09-11T15:25:00.000Z,21.01
2022-09-11T15:27:28.555Z,21.06
2022-09-11T15:29:56.908Z,21.05
2022-09-11T15:32:25.388Z,21.02
2022-09-11T15:34:54.859Z,20.99
2022-09-11T15:37:25.464Z,20.98
2022-09-11T15:39:55.307Z,21.01
2022-09-11T15:42:23.811Z,21.00
2022-09-11T15:44:52.757Z,20.96
2022-09-11T15:47:22.137Z,21.05
2022-09-11T15:49:50.639Z,21.11
2022-09-11T15:52:19.515Z,21.23
2022-09-11T15:54:48.858Z,21.33
2022-09-11T15:57:18.899Z,21.36
2022-09-11T15:59:47.258Z,21.39
2022-09-11T16:02:15.624Z,21.43
2022-09-11T16:04:44.078Z,21.45
2022-09-11T16:07:12.508Z,21.38
2022-09-11T16:09:40.957Z,21.44
2022-09-11T16:12:09.495Z,21.46
2022-09-11T16:14:39.393Z,21.48
2022-09-11T16:17:09.155Z,21.53
2022-09-11T16:19:38.618Z,21.59
2022-09-11T16:22:08.884Z,21.56
2022-09-11T16:24:38.098Z,21.56
2022-09-11T16:27:09.219Z,21.58
2022-09-11T16:32:31.971Z,21.55
2022-09-11T16:35:00.368Z,21.55
2022-09-11T16:37:31.079Z,21.54
2022-09-11T16:39:59.383Z,21.54
2022-09-11T16:42:27.856Z,21.57
2022-09-11T16:44:57.585Z,21.52
2022-09-11T16:47:26.005Z,21.46
2022-09-11T16:50:10.023Z,21.39
2022-09-11T16:52:39.106Z,21.37
2022-09-11T16:55:09.599Z,21.33
2022-09-11T16:57:38.639Z,21.28
2022-09-11T17:00:11.185Z,21.20
2022-09-11T17:02:39.553Z,21.08
2022-09-11T17:05:09.271Z,21.05
2022-09-11T17:07:37.699Z,21.02
2022-09-11T17:10:06.852Z,20.97
2022-09-11T17:12:35.256Z,20.94
2022-09-11T17:15:03.810Z,20.87
2022-09-11T17:17:33.527Z,20.81
2022-09-11T17:20:02.017Z,20.80
2022-09-11T17:22:30.404Z,20.76
2022-09-11T17:24:58.706Z,20.71
2022-09-11T17:27:27.483Z,20.66
2022-09-11T17:29:55.911Z,20.57
2022-09-11T17:32:28.204Z,20.52
2022-09-11T17:34:59.442Z,20.47
2022-09-11T17:37:28.527Z,20.38
2022-09-11T17:39:57.965Z,20.34
2022-09-11T17:42:30.313Z,20.31
2022-09-11T17:44:58.755Z,20.27
2022-09-11T17:47:30.991Z,20.21
2022-09-11T17:50:01.497Z,20.15
2022-09-11T17:52:31.446Z,20.09
2022-09-11T17:54:59.751Z,20.07
2022-09-11T17:57:28.391Z,20.00
2022-09-11T17:59:56.693Z,19.95
2022-09-11T18:02:25.272Z,19.93
2022-09-11T18:04:53.752Z,19.89
2022-09-11T18:07:23.407Z,19.85
2022-09-11T18:09:56.115Z,19.83
2022-09-11T18:12:26.062Z,19.77
2022-09-11T18:14:56.943Z,19.76
2022-09-11T18:17:25.228Z,19.70
2022-09-11T18:19:53.498Z,19.65
2022-09-11T18:22:23.340Z,19.58
2022-09-11T18:24:52.135Z,19.49
2022-09-11T18:27:20.699Z,19.50
2022-09-11T18:29:50.119Z,19.46
2022-09-11T18:32:19.943Z,19.41
2022-09-11T18:34:49.702Z,19.37
2022-09-11T18:37:18.264Z,19.35
2022-09-11T18:39:48.314Z,19.35
2022-09-11T18:42:18.077Z,19.31
2022-09-11T18:44:46.412Z,19.27
2022-09-11T18:47:14.806Z,19.29
2022-09-11T18:49:43.951Z,19.29
2022-09-11T18:52:14.596Z,19.26
2022-09-11T18:54:42.918Z,19.19
2022-09-11T18:57:12.582Z,19.15
2022-09-11T18:59:40.886Z,19.12
